Time;durP1;ratioP1;P1;durP2;ratioP2;P2;SDS_P1;SDS_P2;PMS_P1;PMS_P2;Temp;Humidity;BMP_temperature;BMP_pressure;BME280_temperature;BME280_humidity;BME280_pressure;Samples;Min_cycle;Max_cycle;Signal;HPM_P1;HPM_P2
2021/01/03 00:02:07;;;;;;;126.05;37.88;;;;;;;;;;8129094;28;20422;-73
2021/01/03 00:06:14;;;;;;;120.47;37.58;;;;;;;;;;8127512;28;20484;-73
2021/01/03 00:10:19;;;;;;;117.88;37.08;;;;;;;;;;8128291;28;20393;-73
2021/01/03 00:14:22;;;;;;;158.82;42.80;;;;;;;;;;8127382;28;20496;-73
2021/01/03 00:18:25;;;;;;;149.38;43.95;;;;;;;;;;8128198;28;20363;-72
2021/01/03 00:22:29;;;;;;;330.23;85.30;;;;;;;;;;8127077;28;20362;-72
2021/01/03 00:26:32;;;;;;;234.05;67.43;;;;;;;;;;8126808;28;20050;-72
2021/01/03 00:30:35;;;;;;;121.53;38.60;;;;;;;;;;8126177;28;20389;-72
2021/01/03 00:34:38;;;;;;;59.80;22.92;;;;;;;;;;8127988;28;20482;-73
2021/01/03 00:38:40;;;;;;;60.28;22.65;;;;;;;;;;8127663;28;20406;-73
2021/01/03 00:42:44;;;;;;;65.40;24.58;;;;;;;;;;8127858;28;20117;-73
2021/01/03 00:46:47;;;;;;;112.60;34.13;;;;;;;;;;8131770;28;20058;-73
2021/01/03 00:50:50;;;;;;;102.50;34.65;;;;;;;;;;8134843;28;20381;-73
2021/01/03 00:54:55;;;;;;;66.78;25.48;;;;;;;;;;8134238;28;20482;-73
2021/01/03 00:58:58;;;;;;;59.08;21.75;;;;;;;;;;8134455;28;20073;-73
2021/01/03 01:03:05;;;;;;;61.53;23.85;;;;;;;;;;8133971;28;20054;-73
2021/01/03 01:07:08;;;;;;;61.03;24.08;;;;;;;;;;8132395;28;20058;-73
2021/01/03 01:11:11;;;;;;;61.63;25.10;;;;;;;;;;8132022;28;20397;-73
2021/01/03 01:15:18;;;;;;;53.47;21.10;;;;;;;;;;8133512;28;20359;-74
2021/01/03 01:19:22;;;;;;;57.67;21.52;;;;;;;;;;8133568;28;20073;-73
2021/01/03 01:23:25;;;;;;;52.85;21.15;;;;;;;;;;8133108;28;20466;-73
2021/01/03 01:27:28;;;;;;;49.63;20.25;;;;;;;;;;8133625;28;20461;-73
2021/01/03 01:31:32;;;;;;;52.08;21.85;;;;;;;;;;8133544;28;20462;-73
2021/01/03 01:35:36;;;;;;;69.80;28.90;;;;;;;;;;8132888;28;20485;-73
2021/01/03 01:39:40;;;;;;;83.80;33.92;;;;;;;;;;8132866;28;20051;-73
2021/01/03 01:43:43;;;;;;;62.25;22.58;;;;;;;;;;8132969;28;20458;-73
2021/01/03 01:47:51;;;;;;;48.20;19.92;;;;;;;;;;8130947;28;20458;-73
2021/01/03 01:51:55;;;;;;;42.15;17.13;;;;;;;;;;8130728;28;20393;-73
2021/01/03 01:56:14;;;;;;;43.55;16.70;;;;;;;;;;8130118;28;20382;-73
2021/01/03 02:00:26;;;;;;;54.17;22.63;;;;;;;;;;8130400;28;20377;-73
2021/01/03 02:04:39;;;;;;;39.53;18.77;;;;;;;;;;8130289;28;20070;-73
2021/01/03 02:08:54;;;;;;;40.15;18.40;;;;;;;;;;8130060;28;20434;-73
2021/01/03 02:13:12;;;;;;;47.20;17.38;;;;;;;;;;8130302;28;20389;-73
2021/01/03 02:17:15;;;;;;;42.15;17.40;;;;;;;;;;8131646;28;20485;-73
2021/01/03 02:22:16;;;;;;;41.90;15.80;;;;;;;;;;8133672;28;20358;-73
2021/01/03 02:26:26;;;;;;;44.88;18.45;;;;;;;;;;8117439;28;20402;-73
2021/01/03 02:30:30;;;;;;;33.67;16.83;;;;;;;;;;8129841;28;20490;-73
2021/01/03 02:34:38;;;;;;;48.05;20.45;;;;;;;;;;8129626;28;20418;-73
2021/01/03 02:38:51;;;;;;;38.00;17.50;;;;;;;;;;8131672;28;20043;-73
2021/01/03 02:42:54;;;;;;;46.70;18.45;;;;;;;;;;8129434;28;20467;-73
2021/01/03 02:46:57;;;;;;;40.13;16.92;;;;;;;;;;8129495;28;20470;-73
2021/01/03 02:51:00;;;;;;;38.55;16.17;;;;;;;;;;8130997;28;20401;-73
2021/01/03 02:55:04;;;;;;;43.10;18.95;;;;;;;;;;8130850;28;20409;-73
2021/01/03 02:59:08;;;;;;;40.15;16.50;;;;;;;;;;8129346;28;20062;-73
2021/01/03 03:03:11;;;;;;;47.53;21.63;;;;;;;;;;8130223;28;20051;-73
2021/01/03 03:07:15;;;;;;;44.25;17.17;;;;;;;;;;8128854;28;20622;-73
2021/01/03 03:11:18;;;;;;;36.90;15.05;;;;;;;;;;8129744;28;20489;-73
2021/01/03 03:15:24;;;;;;;35.25;14.38;;;;;;;;;;8130568;28;20050;-73
2021/01/03 03:19:27;;;;;;;45.10;21.13;;;;;;;;;;8128550;28;20390;-75
2021/01/03 03:23:31;;;;;;;38.58;16.70;;;;;;;;;;8130060;28;20394;-73
2021/01/03 03:27:35;;;;;;;33.15;15.18;;;;;;;;;;8129071;28;20076;-73
2021/01/03 03:31:39;;;;;;;43.78;19.25;;;;;;;;;;8112755;28;20378;-73
2021/01/03 03:35:42;;;;;;;34.90;15.13;;;;;;;;;;8129558;28;20470;-73
2021/01/03 03:39:45;;;;;;;35.13;13.60;;;;;;;;;;8129199;28;20074;-73
2021/01/03 03:43:49;;;;;;;34.28;15.23;;;;;;;;;;8129450;28;20462;-73
2021/01/03 03:47:52;;;;;;;33.70;14.20;;;;;;;;;;8129273;28;20378;-73
2021/01/03 03:51:58;;;;;;;35.20;15.35;;;;;;;;;;8143095;28;20526;-73
2021/01/03 03:56:02;;;;;;;32.80;15.48;;;;;;;;;;8127344;28;20359;-73
2021/01/03 04:00:11;;;;;;;29.08;14.15;;;;;;;;;;8128981;28;20413;-73
2021/01/03 04:04:15;;;;;;;39.97;15.32;;;;;;;;;;8128431;28;20074;-73
2021/01/03 04:08:18;;;;;;;31.38;14.85;;;;;;;;;;8127149;28;20073;-73
2021/01/03 04:12:21;;;;;;;36.20;17.20;;;;;;;;;;8128410;28;20055;-73
2021/01/03 04:16:24;;;;;;;38.97;16.88;;;;;;;;;;8128120;28;20414;-74
2021/01/03 04:20:27;;;;;;;35.15;14.88;;;;;;;;;;8127613;28;20474;-73
2021/01/03 04:24:32;;;;;;;37.20;15.90;;;;;;;;;;8127097;28;20458;-73
2021/01/03 04:28:35;;;;;;;30.27;14.93;;;;;;;;;;8127363;28;20466;-73
2021/01/03 04:32:38;;;;;;;31.38;16.00;;;;;;;;;;8128159;28;20362;-73
2021/01/03 04:36:41;;;;;;;30.13;13.32;;;;;;;;;;8127939;28;20052;-73
2021/01/03 04:40:47;;;;;;;31.88;12.70;;;;;;;;;;8128218;28;20378;-73
2021/01/03 04:44:58;;;;;;;38.83;17.88;;;;;;;;;;8126036;28;20462;-73
2021/01/03 04:49:09;;;;;;;32.42;15.38;;;;;;;;;;8126282;28;20382;-73
2021/01/03 04:53:35;;;;;;;29.15;13.00;;;;;;;;;;8127763;28;20500;-73
2021/01/03 04:57:49;;;;;;;29.48;13.98;;;;;;;;;;8127590;28;20458;-73
2021/01/03 05:02:13;;;;;;;31.88;13.23;;;;;;;;;;8127602;28;20384;-73
2021/01/03 05:06:24;;;;;;;27.75;14.35;;;;;;;;;;8127108;28;20136;-73
2021/01/03 05:10:28;;;;;;;36.72;14.80;;;;;;;;;;8127438;28;20494;-73
2021/01/03 05:15:00;;;;;;;24.35;12.20;;;;;;;;;;8126692;28;20075;-73
2021/01/03 05:19:05;;;;;;;31.60;12.43;;;;;;;;;;8128053;28;20378;-73
2021/01/03 05:23:21;;;;;;;25.30;13.52;;;;;;;;;;8127614;28;20080;-73
2021/01/03 05:27:25;;;;;;;32.88;12.88;;;;;;;;;;8125261;28;20377;-73
2021/01/03 05:31:31;;;;;;;32.47;15.32;;;;;;;;;;8129357;28;20466;-73
2021/01/03 05:35:42;;;;;;;27.17;13.75;;;;;;;;;;8133259;28;20389;-73
2021/01/03 05:39:46;;;;;;;28.20;13.38;;;;;;;;;;8132912;28;20462;-73
2021/01/03 05:43:56;;;;;;;28.50;13.73;;;;;;;;;;8131762;28;20055;-73
2021/01/03 05:48:04;;;;;;;26.90;12.75;;;;;;;;;;8131370;28;20406;-73
2021/01/03 05:52:23;;;;;;;27.08;12.60;;;;;;;;;;8131264;28;20410;-73
2021/01/03 05:56:28;;;;;;;31.90;13.50;;;;;;;;;;8116143;28;20047;-73
2021/01/03 06:00:31;;;;;;;31.67;14.68;;;;;;;;;;8131180;28;20362;-73
2021/01/03 06:04:35;;;;;;;28.77;13.60;;;;;;;;;;8132174;28;20370;-73
2021/01/03 06:08:40;;;;;;;22.98;12.15;;;;;;;;;;8131087;28;20462;-73
2021/01/03 06:13:01;;;;;;;29.58;13.10;;;;;;;;;;8130431;28;20370;-73
2021/01/03 06:17:13;;;;;;;29.73;13.35;;;;;;;;;;8131970;28;20477;-73
2021/01/03 06:21:34;;;;;;;28.73;14.30;;;;;;;;;;8129814;28;20466;-74
2021/01/03 06:25:58;;;;;;;27.08;12.35;;;;;;;;;;8130577;28;20363;-73
2021/01/03 06:30:13;;;;;;;33.13;15.88;;;;;;;;;;8129671;28;20066;-73
2021/01/03 06:34:59;;;;;;;28.60;14.27;;;;;;;;;;8131564;28;20381;-73
2021/01/03 06:39:22;;;;;;;30.58;13.68;;;;;;;;;;8132575;28;20402;-73
2021/01/03 06:44:01;;;;;;;34.05;15.40;;;;;;;;;;8129564;28;20061;-74
2021/01/03 06:48:22;;;;;;;;;;;;;;;;;;8146179;28;20128;-73
2021/01/03 06:52:33;;;;;;;74.45;36.25;;;;;;;;;;8130245;28;20268;-73
2021/01/03 06:57:03;;;;;;;32.97;15.63;;;;;;;;;;8131351;28;20477;-73
2021/01/03 07:01:21;;;;;;;33.03;13.75;;;;;;;;;;8130589;28;20488;-73
2021/01/03 07:05:23;;;;;;;61.35;29.98;;;;;;;;;;8129082;28;20370;-74
2021/01/03 07:09:27;;;;;;;44.25;20.88;;;;;;;;;;8129977;28;20474;-73
2021/01/03 07:13:30;;;;;;;35.08;16.92;;;;;;;;;;8128378;28;20050;-73
2021/01/03 07:17:56;;;;;;;25.55;14.25;;;;;;;;;;8129752;28;20470;-73
2021/01/03 07:22:14;;;;;;;32.47;14.35;;;;;;;;;;8129825;28;20474;-73
2021/01/03 07:26:30;;;;;;;32.70;14.43;;;;;;;;;;8144092;28;20055;-73
2021/01/03 07:30:59;;;;;;;30.83;14.18;;;;;;;;;;8128231;28;20466;-73
2021/01/03 07:35:19;;;;;;;35.13;14.38;;;;;;;;;;8128449;28;20050;-73
2021/01/03 07:39:32;;;;;;;30.17;13.73;;;;;;;;;;8129253;28;20046;-73
2021/01/03 07:44:03;;;;;;;30.90;14.95;;;;;;;;;;8129240;28;20381;-73
2021/01/03 07:48:38;;;;;;;36.28;14.38;;;;;;;;;;8127557;28;20511;-73
2021/01/03 07:52:46;;;;;;;28.48;13.00;;;;;;;;;;8129071;28;20054;-73
2021/01/03 07:56:49;;;;;;;30.73;12.95;;;;;;;;;;8127527;28;20481;-73
2021/01/03 08:00:56;;;;;;;36.67;19.33;;;;;;;;;;8143602;28;20384;-72
2021/01/03 08:05:01;;;;;;;26.65;12.50;;;;;;;;;;8158722;28;20481;-72
2021/01/03 08:09:05;;;;;;;36.25;13.05;;;;;;;;;;8157199;28;20492;-71
2021/01/03 08:13:25;;;;;;;43.80;15.77;;;;;;;;;;8146471;28;20476;-73
2021/01/03 08:17:37;;;;;;;34.53;17.27;;;;;;;;;;8157914;28;20469;-73
2021/01/03 08:21:41;;;;;;;49.33;21.00;;;;;;;;;;8157906;28;20492;-72
2021/01/03 08:25:45;;;;;;;49.10;21.30;;;;;;;;;;8157291;28;20469;-72
2021/01/03 08:30:00;;;;;;;79.95;44.22;;;;;;;;;;8155909;28;20488;-70
2021/01/03 08:34:04;;;;;;;88.97;46.13;;;;;;;;;;8157089;28;20485;-72
2021/01/03 08:38:07;;;;;;;57.90;29.23;;;;;;;;;;8155528;28;20484;-72
2021/01/03 08:42:24;;;;;;;126.63;60.20;;;;;;;;;;8159978;28;20469;-72
2021/01/03 08:46:32;;;;;;;35.22;16.75;;;;;;;;;;8155692;28;20380;-72
2021/01/03 08:50:38;;;;;;;28.97;13.67;;;;;;;;;;8158561;28;20461;-71
2021/01/03 08:54:50;;;;;;;28.60;13.70;;;;;;;;;;8157918;28;20477;-72
2021/01/03 08:58:54;;;;;;;33.53;13.90;;;;;;;;;;8156414;28;20072;-71
2021/01/03 09:02:59;;;;;;;36.10;15.15;;;;;;;;;;8142094;28;20462;-71
2021/01/03 09:07:07;;;;;;;30.85;14.10;;;;;;;;;;8159307;28;20384;-72
2021/01/03 09:11:30;;;;;;;31.08;13.85;;;;;;;;;;8164952;28;20384;-71
2021/01/03 09:15:40;;;;;;;31.48;13.07;;;;;;;;;;8146532;28;20376;-73
2021/01/03 09:20:17;;;;;;;26.27;13.23;;;;;;;;;;8162808;28;20054;-73
2021/01/03 09:24:26;;;;;;;29.88;14.02;;;;;;;;;;8164902;28;20386;-72
2021/01/03 09:28:42;;;;;;;33.95;15.98;;;;;;;;;;8145354;28;20054;-73
2021/01/03 09:32:51;;;;;;;43.03;17.95;;;;;;;;;;8163065;28;20420;-72
2021/01/03 09:37:30;;;;;;;512.03;185.13;;;;;;;;;;8163486;28;20046;-73
2021/01/03 09:42:24;;;;;;;172.35;49.33;;;;;;;;;;8118645;28;20377;-73
2021/01/03 09:46:51;;;;;;;54.38;23.75;;;;;;;;;;8161619;28;20366;-73
2021/01/03 09:51:07;;;;;;;48.83;24.00;;;;;;;;;;8162424;28;20488;-72
2021/01/03 09:55:24;;;;;;;163.80;65.40;;;;;;;;;;8162211;28;20515;-72
2021/01/03 09:59:28;;;;;;;144.00;66.00;;;;;;;;;;8160895;28;20381;-72
2021/01/03 10:03:40;;;;;;;80.47;31.25;;;;;;;;;;8148232;28;20374;-72
2021/01/03 10:07:43;;;;;;;85.88;34.67;;;;;;;;;;8160435;28;20358;-72
2021/01/03 10:11:47;;;;;;;80.68;37.05;;;;;;;;;;8159030;28;20531;-73
2021/01/03 10:15:51;;;;;;;72.13;32.45;;;;;;;;;;8156831;28;20054;-72
2021/01/03 10:19:55;;;;;;;71.93;32.10;;;;;;;;;;8157521;28;20495;-72
2021/01/03 10:24:18;;;;;;;66.07;29.15;;;;;;;;;;8158831;28;20401;-73
2021/01/03 10:28:21;;;;;;;67.85;26.23;;;;;;;;;;8156928;28;20462;-72
2021/01/03 10:32:25;;;;;;;80.68;31.88;;;;;;;;;;8171895;28;20496;-72
2021/01/03 10:36:28;;;;;;;137.90;57.40;;;;;;;;;;8162057;28;20065;-73
2021/01/03 10:40:31;;;;;;;370.02;124.80;;;;;;;;;;8184038;28;20508;-72
2021/01/03 10:44:34;;;;;;;332.00;109.13;;;;;;;;;;8129935;28;20072;-74
2021/01/03 10:48:37;;;;;;;52.13;21.42;;;;;;;;;;8127385;28;20363;-74
2021/01/03 10:52:54;;;;;;;49.60;22.85;;;;;;;;;;8128391;28;20409;-75
2021/01/03 10:56:58;;;;;;;182.73;65.07;;;;;;;;;;8126693;28;20418;-74
2021/01/03 11:01:01;;;;;;;106.10;39.03;;;;;;;;;;8129136;28;20474;-74
2021/01/03 11:05:07;;;;;;;101.53;38.17;;;;;;;;;;8129498;28;20039;-74
2021/01/03 11:09:25;;;;;;;96.43;35.63;;;;;;;;;;8126558;28;20405;-74
2021/01/03 11:13:29;;;;;;;169.63;67.55;;;;;;;;;;8125411;28;20528;-74
2021/01/03 11:17:32;;;;;;;168.50;64.70;;;;;;;;;;8110052;28;20741;-74
2021/01/03 11:21:36;;;;;;;53.20;23.80;;;;;;;;;;8097537;28;20504;-74
2021/01/03 11:25:46;;;;;;;135.52;53.25;;;;;;;;;;8080441;29;20481;-74
2021/01/03 11:29:54;;;;;;;87.03;33.60;;;;;;;;;;8095670;28;20504;-73
2021/01/03 11:33:57;;;;;;;136.80;48.90;;;;;;;;;;8111231;28;20466;-72
2021/01/03 11:38:03;;;;;;;101.95;38.38;;;;;;;;;;8095464;28;20378;-71
2021/01/03 11:42:12;;;;;;;35.35;15.20;;;;;;;;;;8095735;28;20528;-71
2021/01/03 11:46:17;;;;;;;165.75;60.35;;;;;;;;;;8099335;28;20404;-70
2021/01/03 11:50:23;;;;;;;116.57;44.97;;;;;;;;;;8126011;28;20413;-72
2021/01/03 11:54:27;;;;;;;56.80;24.00;;;;;;;;;;8125192;28;20054;-73
2021/01/03 11:58:30;;;;;;;42.40;17.15;;;;;;;;;;8124129;28;20386;-71
2021/01/03 12:02:34;;;;;;;80.45;24.90;;;;;;;;;;8121036;28;20462;-72
2021/01/03 12:06:36;;;;;;;101.45;42.30;;;;;;;;;;8120888;28;20047;-71
2021/01/03 12:10:41;;;;;;;76.32;28.77;;;;;;;;;;8122461;28;20055;-71
2021/01/03 12:14:45;;;;;;;61.55;23.30;;;;;;;;;;8103507;28;20382;-71
2021/01/03 12:18:50;;;;;;;428.92;145.48;;;;;;;;;;8120856;28;20059;-71
2021/01/03 12:22:54;;;;;;;71.72;28.63;;;;;;;;;;8118400;28;20588;-71
2021/01/03 12:26:58;;;;;;;393.67;121.32;;;;;;;;;;8103851;28;20355;-71
2021/01/03 12:31:01;;;;;;;70.30;25.15;;;;;;;;;;8099354;28;20417;-75
2021/01/03 12:35:08;;;;;;;216.75;71.03;;;;;;;;;;8137049;28;20465;-72
2021/01/03 12:39:14;;;;;;;111.47;54.72;;;;;;;;;;8104691;28;20050;-71
2021/01/03 12:43:18;;;;;;;62.60;24.38;;;;;;;;;;8120154;28;20376;-72
2021/01/03 12:47:21;;;;;;;45.22;19.73;;;;;;;;;;8137710;28;20484;-71
2021/01/03 12:51:26;;;;;;;39.72;15.95;;;;;;;;;;8093797;28;20098;-72
2021/01/03 12:55:29;;;;;;;34.97;15.70;;;;;;;;;;8139566;28;20481;-70
2021/01/03 12:59:33;;;;;;;30.45;13.88;;;;;;;;;;8141285;28;20477;-73
2021/01/03 13:03:38;;;;;;;320.20;90.53;;;;;;;;;;8158576;28;20381;-72
2021/01/03 13:07:41;;;;;;;239.68;68.00;;;;;;;;;;8156775;28;20393;-74
2021/01/03 13:11:45;;;;;;;121.57;39.95;;;;;;;;;;8158220;28;20718;-74
2021/01/03 13:15:49;;;;;;;830.80;247.75;;;;;;;;;;8155927;28;20525;-75
2021/01/03 13:19:52;;;;;;;93.40;41.58;;;;;;;;;;8158881;28;20496;-74
2021/01/03 13:23:57;;;;;;;195.50;49.45;;;;;;;;;;8152279;28;20363;-74
2021/01/03 13:28:00;;;;;;;338.92;72.05;;;;;;;;;;8126270;28;20488;-73
2021/01/03 13:32:04;;;;;;;814.22;187.05;;;;;;;;;;8126698;28;20389;-73
2021/01/03 13:36:10;;;;;;;299.45;66.07;;;;;;;;;;8124089;28;20829;-72
2021/01/03 13:40:15;;;;;;;589.95;129.13;;;;;;;;;;8115849;28;20050;-73
2021/01/03 13:44:18;;;;;;;371.27;83.82;;;;;;;;;;8125955;28;20378;-72
2021/01/03 13:48:22;;;;;;;486.10;110.25;;;;;;;;;;8132965;28;20473;-74
2021/01/03 13:52:26;;;;;;;435.30;88.13;;;;;;;;;;8173536;28;20366;-72
2021/01/03 13:56:35;;;;;;;364.50;75.95;;;;;;;;;;8163645;28;20484;-73
2021/01/03 14:00:40;;;;;;;285.48;66.65;;;;;;;;;;8161098;28;20373;-72
2021/01/03 14:04:44;;;;;;;635.20;170.90;;;;;;;;;;8162204;28;20484;-73
2021/01/03 14:08:47;;;;;;;525.05;123.22;;;;;;;;;;8158098;28;20396;-72
2021/01/03 14:12:50;;;;;;;142.98;43.53;;;;;;;;;;8176897;28;20389;-73
2021/01/03 14:17:00;;;;;;;302.85;67.72;;;;;;;;;;8158578;28;20424;-73
2021/01/03 14:21:03;;;;;;;50.33;21.60;;;;;;;;;;8163090;28;20396;-74
2021/01/03 14:25:08;;;;;;;53.58;23.50;;;;;;;;;;8161754;28;20527;-73
2021/01/03 14:29:18;;;;;;;37.78;17.73;;;;;;;;;;8158439;28;20354;-72
2021/01/03 14:33:24;;;;;;;218.77;48.80;;;;;;;;;;8159494;28;20488;-72
2021/01/03 14:37:44;;;;;;;232.30;55.00;;;;;;;;;;8149442;28;20367;-73
2021/01/03 14:41:58;;;;;;;335.80;86.28;;;;;;;;;;8129233;28;20423;-73
2021/01/03 14:46:15;;;;;;;252.57;63.67;;;;;;;;;;8142586;28;20054;-73
2021/01/03 14:50:33;;;;;;;311.05;81.88;;;;;;;;;;8152827;28;20050;-73
2021/01/03 14:55:17;;;;;;;83.30;29.75;;;;;;;;;;8159481;28;20477;-73
2021/01/03 14:59:55;;;;;;;52.47;21.88;;;;;;;;;;8149905;28;20466;-72
2021/01/03 15:04:28;;;;;;;51.60;21.35;;;;;;;;;;8128135;28;20389;-73
2021/01/03 15:08:46;;;;;;;99.88;51.25;;;;;;;;;;8142459;28;20500;-73
2021/01/03 15:12:50;;;;;;;41.17;20.85;;;;;;;;;;8130994;28;20482;-73
2021/01/03 15:17:10;;;;;;;126.78;40.35;;;;;;;;;;8127981;28;20500;-72
2021/01/03 15:21:13;;;;;;;96.15;28.40;;;;;;;;;;8142528;28;20101;-73
2021/01/03 15:25:23;;;;;;;117.90;29.83;;;;;;;;;;8143700;28;20469;-72
2021/01/03 15:29:31;;;;;;;92.07;26.92;;;;;;;;;;8108958;28;20051;-73
2021/01/03 15:33:40;;;;;;;59.95;23.70;;;;;;;;;;8081008;28;20047;-73
2021/01/03 15:37:54;;;;;;;;;;;;;;;;;;8110955;28;20418;-73
2021/01/03 15:42:03;;;;;;;67.35;27.88;;;;;;;;;;8119826;28;19952;-74
2021/01/03 15:46:25;;;;;;;91.03;31.23;;;;;;;;;;8125257;28;20366;-72
2021/01/03 15:50:28;;;;;;;43.88;17.90;;;;;;;;;;8142834;28;20072;-73
2021/01/03 15:54:37;;;;;;;47.97;19.02;;;;;;;;;;8143037;28;20504;-73
2021/01/03 15:58:43;;;;;;;69.97;22.48;;;;;;;;;;8154674;28;20495;-72
2021/01/03 16:02:49;;;;;;;55.28;19.58;;;;;;;;;;8159979;28;20054;-73
2021/01/03 16:06:52;;;;;;;62.13;23.33;;;;;;;;;;8140619;28;20385;-72
2021/01/03 16:10:55;;;;;;;107.00;40.67;;;;;;;;;;8160219;28;20465;-72
2021/01/03 16:14:58;;;;;;;102.97;34.15;;;;;;;;;;8156233;28;20050;-72
2021/01/03 16:19:40;;;;;;;68.10;23.98;;;;;;;;;;8156674;28;20428;-72
2021/01/03 16:24:10;;;;;;;48.95;20.00;;;;;;;;;;8156309;28;20378;-72
2021/01/03 16:29:04;;;;;;;81.03;28.23;;;;;;;;;;8157427;28;20511;-73
2021/01/03 16:34:10;;;;;;;61.80;24.55;;;;;;;;;;8119997;28;20453;-72
2021/01/03 16:38:38;;;;;;;85.85;32.85;;;;;;;;;;8156645;28;20492;-73
2021/01/03 16:42:51;;;;;;;103.75;45.80;;;;;;;;;;8157394;28;20495;-72
2021/01/03 16:47:40;;;;;;;184.63;67.57;;;;;;;;;;8157636;28;20487;-72
2021/01/03 16:52:15;;;;;;;138.93;55.85;;;;;;;;;;8157152;28;20046;-72
2021/01/03 16:56:48;;;;;;;113.63;48.22;;;;;;;;;;8156382;28;20382;-73
2021/01/03 17:00:58;;;;;;;377.02;89.32;;;;;;;;;;8156805;28;20470;-72
2021/01/03 17:05:04;;;;;;;847.88;280.25;;;;;;;;;;8158740;28;20473;-72
2021/01/03 17:09:37;;;;;;;761.78;246.95;;;;;;;;;;8155526;28;20615;-72
2021/01/03 17:14:02;;;;;;;212.30;62.67;;;;;;;;;;8156542;28;20473;-72
2021/01/03 17:18:25;;;;;;;842.05;301.92;;;;;;;;;;8155763;28;20373;-72
2021/01/03 17:23:14;;;;;;;189.90;60.70;;;;;;;;;;8157386;28;20358;-72
2021/01/03 17:27:54;;;;;;;377.10;104.07;;;;;;;;;;8158731;28;20080;-72
2021/01/03 17:32:17;;;;;;;400.42;107.05;;;;;;;;;;8164796;28;20109;-72
2021/01/03 17:36:55;;;;;;;150.23;41.40;;;;;;;;;;8162874;28;20561;-74
2021/01/03 17:41:04;;;;;;;444.80;135.77;;;;;;;;;;8164240;28;20374;-72
2021/01/03 17:45:38;;;;;;;152.98;47.58;;;;;;;;;;8164054;28;20068;-72
2021/01/03 17:50:15;;;;;;;136.80;45.58;;;;;;;;;;8162130;28;20392;-72
2021/01/03 17:54:20;;;;;;;173.40;60.55;;;;;;;;;;8139735;28;20380;-73
2021/01/03 17:58:34;;;;;;;137.10;49.47;;;;;;;;;;8141658;28;20507;-72
2021/01/03 18:02:38;;;;;;;46.22;18.45;;;;;;;;;;8149341;28;20481;-72
2021/01/03 18:06:58;;;;;;;229.07;65.40;;;;;;;;;;8155931;28;20388;-74
2021/01/03 18:11:01;;;;;;;120.40;39.33;;;;;;;;;;8132480;28;20042;-73
2021/01/03 18:15:05;;;;;;;203.65;64.80;;;;;;;;;;8138804;28;20079;-72
2021/01/03 18:19:13;;;;;;;289.90;81.00;;;;;;;;;;8142302;28;20556;-74
2021/01/03 18:23:17;;;;;;;623.38;191.63;;;;;;;;;;8137866;28;20054;-74
2021/01/03 18:27:21;;;;;;;256.40;59.83;;;;;;;;;;8121666;28;20417;-75
2021/01/03 18:31:24;;;;;;;262.48;79.35;;;;;;;;;;8136745;28;20384;-73
2021/01/03 18:35:37;;;;;;;321.65;77.28;;;;;;;;;;8137621;28;20065;-72
2021/01/03 18:39:46;;;;;;;324.65;107.97;;;;;;;;;;8126064;28;20428;-72
2021/01/03 18:43:57;;;;;;;317.35;101.32;;;;;;;;;;8073674;28;20558;-71
2021/01/03 18:48:00;;;;;;;230.30;82.07;;;;;;;;;;8107487;28;20047;-74
2021/01/03 18:52:07;;;;;;;74.68;24.27;;;;;;;;;;8097953;28;20457;-74
2021/01/03 18:56:11;;;;;;;154.63;44.92;;;;;;;;;;8109739;28;20626;-73
2021/01/03 19:00:21;;;;;;;376.63;103.55;;;;;;;;;;8106229;28;20477;-71
2021/01/03 19:04:24;;;;;;;;;;;;;;;;;;8104886;28;20612;-73
2021/01/03 19:08:27;;;;;;;757.40;218.60;;;;;;;;;;8110199;28;20368;-72
2021/01/03 19:12:30;;;;;;;791.55;227.57;;;;;;;;;;8115530;28;20425;-72
2021/01/03 19:16:40;;;;;;;250.32;65.68;;;;;;;;;;8114429;28;20051;-73
2021/01/03 19:20:49;;;;;;;590.47;145.60;;;;;;;;;;8124023;28;21251;-74
2021/01/03 19:24:52;;;;;;;265.50;72.18;;;;;;;;;;8133197;28;20504;-73
2021/01/03 19:28:56;;;;;;;120.28;42.90;;;;;;;;;;8128516;28;20382;-72
2021/01/03 19:32:59;;;;;;;131.80;42.60;;;;;;;;;;8112345;28;20354;-72
2021/01/03 19:37:04;;;;;;;332.02;85.00;;;;;;;;;;8088390;28;20352;-74
2021/01/03 19:41:08;;;;;;;436.23;109.40;;;;;;;;;;8102852;28;20371;-74
2021/01/03 19:45:12;;;;;;;164.77;45.35;;;;;;;;;;8103721;28;20478;-74
2021/01/03 19:49:16;;;;;;;123.00;35.92;;;;;;;;;;8105800;28;20490;-73
2021/01/03 19:53:20;;;;;;;215.48;57.10;;;;;;;;;;8105978;28;20478;-72
2021/01/03 19:57:23;;;;;;;112.13;37.25;;;;;;;;;;8076545;29;20497;-74
2021/01/03 20:01:27;;;;;;;222.13;63.83;;;;;;;;;;8079177;29;20484;-73
2021/01/03 20:05:30;;;;;;;121.00;42.08;;;;;;;;;;8078987;29;20506;-73
2021/01/03 20:09:35;;;;;;;80.28;32.58;;;;;;;;;;8078220;29;20395;-73
2021/01/03 20:13:40;;;;;;;122.40;47.45;;;;;;;;;;8013321;28;20407;-74
2021/01/03 20:17:47;;;;;;;77.95;28.23;;;;;;;;;;8042799;29;20482;-74
2021/01/03 20:22:00;;;;;;;90.28;35.67;;;;;;;;;;8042546;29;20056;-74
2021/01/03 20:26:05;;;;;;;171.90;51.65;;;;;;;;;;8019378;28;20369;-74
2021/01/03 20:30:10;;;;;;;173.70;49.35;;;;;;;;;;8119023;28;20677;-73
2021/01/03 20:34:18;;;;;;;179.98;48.80;;;;;;;;;;8109240;28;20414;-75
2021/01/03 20:38:22;;;;;;;128.53;41.10;;;;;;;;;;8118300;28;20390;-75
2021/01/03 20:42:25;;;;;;;162.85;48.40;;;;;;;;;;8139328;28;20457;-74
2021/01/03 20:46:28;;;;;;;183.48;53.50;;;;;;;;;;8140205;28;20436;-75
2021/01/03 20:50:31;;;;;;;52.67;20.63;;;;;;;;;;8143536;28;20409;-74
2021/01/03 20:54:36;;;;;;;99.13;25.67;;;;;;;;;;8143405;28;20611;-73
2021/01/03 20:58:41;;;;;;;65.68;25.13;;;;;;;;;;8137790;28;20050;-74
2021/01/03 21:02:45;;;;;;;164.75;53.13;;;;;;;;;;8109080;28;20050;-74
2021/01/03 21:06:54;;;;;;;179.35;51.70;;;;;;;;;;8107524;28;20470;-75
2021/01/03 21:10:57;;;;;;;244.45;55.53;;;;;;;;;;8110040;28;20496;-74
2021/01/03 21:15:00;;;;;;;225.18;51.38;;;;;;;;;;8107936;28;20543;-74
2021/01/03 21:19:09;;;;;;;336.60;65.88;;;;;;;;;;8109085;28;20676;-74
2021/01/03 21:23:14;;;;;;;324.02;70.78;;;;;;;;;;8110527;28;20482;-74
2021/01/03 21:28:21;;;;;;;306.35;62.85;;;;;;;;;;8106819;28;20413;-75
2021/01/03 21:32:51;;;;;;;183.13;44.13;;;;;;;;;;8109058;28;20505;-74
2021/01/03 21:37:18;;;;;;;240.15;50.15;;;;;;;;;;8108192;28;20506;-75
2021/01/03 21:41:44;;;;;;;106.03;27.42;;;;;;;;;;8107014;28;20054;-75
2021/01/03 21:45:52;;;;;;;223.43;46.95;;;;;;;;;;8109950;28;20422;-75
2021/01/03 21:50:18;;;;;;;216.88;47.33;;;;;;;;;;8122852;28;20500;-75
2021/01/03 21:55:08;;;;;;;189.18;39.17;;;;;;;;;;8108078;28;20467;-74
2021/01/03 21:59:38;;;;;;;204.27;50.03;;;;;;;;;;8106618;28;20501;-74
2021/01/03 22:04:18;;;;;;;210.50;49.15;;;;;;;;;;8108210;28;20455;-74
2021/01/03 22:08:37;;;;;;;178.50;44.85;;;;;;;;;;8105494;28;20508;-73
2021/01/03 22:13:25;;;;;;;132.23;36.75;;;;;;;;;;8106726;28;20409;-74
2021/01/03 22:17:53;;;;;;;129.60;36.57;;;;;;;;;;8106070;28;20377;-73
2021/01/03 22:22:35;;;;;;;175.07;46.95;;;;;;;;;;8106834;28;20351;-75
2021/01/03 22:27:17;;;;;;;137.98;54.17;;;;;;;;;;8108347;28;20466;-76
2021/01/03 22:31:42;;;;;;;92.00;32.97;;;;;;;;;;8106744;28;20622;-75
2021/01/03 22:35:55;;;;;;;67.53;27.25;;;;;;;;;;8107308;28;20050;-76
2021/01/03 22:40:05;;;;;;;157.80;52.95;;;;;;;;;;8121118;28;20389;-75
2021/01/03 22:44:27;;;;;;;107.93;37.80;;;;;;;;;;8120277;28;20522;-74
2021/01/03 22:49:08;;;;;;;73.00;29.63;;;;;;;;;;8106630;28;20473;-75
2021/01/03 22:53:48;;;;;;;82.65;30.88;;;;;;;;;;8105374;28;20367;-74
2021/01/03 22:58:35;;;;;;;61.35;29.80;;;;;;;;;;8107246;28;20058;-75
2021/01/03 23:03:19;;;;;;;68.40;29.00;;;;;;;;;;8107150;28;20666;-75
2021/01/03 23:07:32;;;;;;;70.13;31.75;;;;;;;;;;8105783;28;20402;-75
2021/01/03 23:11:47;;;;;;;114.18;43.00;;;;;;;;;;8089659;28;20474;-75
2021/01/03 23:15:50;;;;;;;129.20;49.83;;;;;;;;;;8106007;28;20531;-75
2021/01/03 23:20:25;;;;;;;116.13;46.72;;;;;;;;;;8106149;28;20073;-75
2021/01/03 23:24:31;;;;;;;96.60;39.80;;;;;;;;;;8108089;28;20501;-76
2021/01/03 23:28:45;;;;;;;77.63;29.98;;;;;;;;;;8119989;28;20382;-75
2021/01/03 23:32:51;;;;;;;58.78;24.88;;;;;;;;;;8103484;28;20463;-75
2021/01/03 23:37:04;;;;;;;54.17;24.45;;;;;;;;;;8105113;28;20054;-74
2021/01/03 23:41:16;;;;;;;50.53;22.23;;;;;;;;;;8117627;28;20663;-75
2021/01/03 23:45:40;;;;;;;49.60;22.98;;;;;;;;;;8105577;28;20508;-76
2021/01/03 23:50:11;;;;;;;67.78;28.27;;;;;;;;;;8102335;28;20623;-76
2021/01/03 23:55:10;;;;;;;56.50;24.55;;;;;;;;;;8104517;28;20069;-76
2021/01/03 23:59:39;;;;;;;93.78;35.00;;;;;;;;;;8104736;28;20632;-76
